Aberdeen, Mississippi
Current Conditions -  °F | °C
As of 1:15 AM on Wednesday 22 Oct 2014 (Local Time) from KM40 Reporting Station
Haze Haze  
Wind Chill:   Ceiling: Unl
Heat Index:   Visibility: 1mi
Dew Point:   Wind: 0mph
Humidity: 62%   Direction: NA
Pressure: 30.1"   Gusts: NA
Location:  33.82°N, 88.54°W
Report Text: KM40 220615Z AUTO 00000KT 1SM HZ CLR 09/02 A3010 RMK AO2
Loading
Personal Weather Stations






























Interactive Weather Map
Tropical Storm Tracking
New forecast layout! Learn more

10-Day Weather Forecast

Advertisements
Track Severe Weather on mobile